Time;durP1;ratioP1;P1;durP2;ratioP2;P2;SDS_P1;SDS_P2;PMS_P1;PMS_P2;Temp;Humidity;BMP_temperature;BMP_pressure;BME280_temperature;BME280_humidity;BME280_pressure;Samples;Min_cycle;Max_cycle;Signal;HPM_P1;HPM_P2
2024/04/18 00:00:01;;;;;;;8.55;1.35;;;;;;;-146.25;100.00;52465.53;2197019;26;35676;-71
2024/04/18 00:01:12;;;;;;;5.80;1.10;;;;;;;-146.25;100.00;52457.41;2197372;26;20017;-71
2024/04/18 00:02:16;;;;;;;6.43;1.02;;;;;;;-146.25;100.00;52429.03;2197253;26;28250;-71
2024/04/18 00:03:20;;;;;;;7.45;1.30;;;;;;;-146.25;100.00;52457.41;2196766;26;35092;-72
2024/04/18 00:04:22;;;;;;;4.40;1.00;;;;;;;-146.25;100.00;52455.38;2197088;26;32316;-69
2024/04/18 00:05:33;;;;;;;6.03;1.15;;;;;;;-146.25;100.00;52449.31;2196598;26;21104;-71
2024/04/18 00:06:35;;;;;;;6.28;1.00;;;;;;;-146.25;100.00;52479.72;2196751;26;32890;-71
2024/04/18 00:07:41;;;;;;;7.68;1.42;;;;;;;-146.25;100.00;52467.56;2197473;26;20871;-72
2024/04/18 00:08:49;;;;;;;6.22;0.95;;;;;;;-146.25;100.00;52463.50;2197690;26;21018;-70
2024/04/18 00:09:59;;;;;;;8.95;1.40;;;;;;;-146.25;100.00;52463.50;2197752;26;20018;-72
2024/04/18 00:11:06;;;;;;;5.03;1.23;;;;;;;-146.25;100.00;52465.53;2197482;26;20834;-71
2024/04/18 00:12:13;;;;;;;5.20;1.00;;;;;;;-146.25;100.00;52404.69;2197798;26;20918;-71
2024/04/18 00:13:20;;;;;;;8.68;1.30;;;;;;;-146.25;100.00;52473.63;2197321;26;20006;-70
2024/04/18 00:14:37;;;;;;;4.85;1.08;;;;;;;-146.25;100.00;52479.72;2197868;26;20013;-72
2024/04/18 00:15:52;;;;;;;6.93;1.05;;;;;;;-146.25;100.00;52465.53;2197384;26;20009;-71
2024/04/18 00:17:06;;;;;;;5.95;1.17;;;;;;;-146.25;100.00;52469.56;2197625;26;20060;-71
2024/04/18 00:18:09;;;;;;;5.85;1.10;;;;;;;-146.25;100.00;52481.75;2197518;26;20013;-71
2024/04/18 00:19:10;;;;;;;7.70;0.93;;;;;;;-146.25;100.00;52473.63;2196752;26;36230;-66
2024/04/18 00:20:12;;;;;;;8.23;1.23;;;;;;;-146.25;100.00;52443.22;2196784;27;35477;-72
2024/04/18 00:21:14;;;;;;;5.32;1.23;;;;;;;-146.25;100.00;52453.34;2196916;26;31321;-72
2024/04/18 00:22:27;;;;;;;4.18;1.00;;;;;;;-146.25;100.00;52437.13;2197640;26;20160;-71
2024/04/18 00:23:36;;;;;;;6.60;1.27;;;;;;;-146.25;100.00;52445.25;2197152;26;20006;-70
2024/04/18 00:24:44;;;;;;;7.10;1.10;;;;;;;-146.25;100.00;52447.28;2197715;26;20038;-71
2024/04/18 00:25:55;;;;;;;9.07;1.90;;;;;;;-146.25;100.00;52465.53;2197305;26;20010;-74
2024/04/18 00:26:57;;;;;;;4.55;1.00;;;;;;;-146.25;100.00;52477.69;2196980;26;38400;-71
2024/04/18 00:28:08;;;;;;;4.32;1.30;;;;;;;-146.25;100.00;52489.84;2197270;26;20017;-71
2024/04/18 00:29:15;;;;;;;4.57;1.13;;;;;;;-146.25;100.00;52477.69;2197695;26;20006;-71
2024/04/18 00:30:17;;;;;;;7.78;1.20;;;;;;;-146.25;100.00;52467.56;2196670;26;33087;-72
2024/04/18 00:31:25;;;;;;;7.90;1.65;;;;;;;-146.25;100.00;52465.53;2197808;26;20032;-71
2024/04/18 00:32:33;;;;;;;7.85;1.67;;;;;;;-146.25;100.00;52469.56;2197976;26;20129;-72
2024/04/18 00:33:53;;;;;;;4.13;1.42;;;;;;;-146.25;100.00;52418.88;2197465;27;20057;-70
2024/04/18 00:35:01;;;;;;;9.30;2.05;;;;;;;-146.25;100.00;52420.91;2196802;27;20951;-72
2024/04/18 00:36:11;;;;;;;8.55;1.45;;;;;;;-146.25;100.00;52461.47;2196717;27;20985;-71
2024/04/18 00:37:22;;;;;;;8.10;2.20;;;;;;;-146.25;100.00;52479.72;2197798;26;20014;-70
2024/04/18 00:38:33;;;;;;;6.75;1.65;;;;;;;-146.25;100.00;52477.69;2197004;27;20006;-71
2024/04/18 00:39:35;;;;;;;7.00;1.67;;;;;;;-146.25;100.00;52477.69;2203063;26;29425;-70
2024/04/18 00:40:37;;;;;;;7.45;1.65;;;;;;;-146.25;100.00;52455.38;2210875;26;33890;-72
2024/04/18 00:41:50;;;;;;;7.53;1.77;;;;;;;-146.25;100.00;52485.81;2212115;26;20005;-71
2024/04/18 00:43:03;;;;;;;8.70;1.60;;;;;;;-146.25;100.00;52473.63;2211659;26;20012;-70
2024/04/18 00:44:15;;;;;;;6.97;1.70;;;;;;;-146.25;100.00;52471.59;2211858;26;20044;-70
2024/04/18 00:45:19;;;;;;;4.55;1.08;;;;;;;-146.25;100.00;52469.56;2210910;26;36524;-71
2024/04/18 00:46:26;;;;;;;5.57;1.42;;;;;;;-146.25;100.00;52489.84;2211061;26;31203;-71
2024/04/18 00:47:33;;;;;;;8.15;1.42;;;;;;;-146.25;100.00;52447.28;2212054;26;20005;-71
2024/04/18 00:48:45;;;;;;;5.68;1.13;;;;;;;-146.25;100.00;52449.31;2211568;26;20009;-70
2024/04/18 00:49:47;;;;;;;5.65;1.77;;;;;;;-146.25;100.00;52447.28;2210569;26;31195;-71
2024/04/18 00:50:57;;;;;;;4.68;1.27;;;;;;;-146.25;100.00;52485.81;2209937;26;36183;-71
2024/04/18 00:51:59;;;;;;;6.00;1.98;;;;;;;-146.25;100.00;52445.25;2210580;26;33299;-71
2024/04/18 00:53:01;;;;;;;9.52;2.15;;;;;;;-146.25;100.00;52420.91;2204248;26;23777;-71
2024/04/18 00:54:03;;;;;;;7.90;1.50;;;;;;;-146.25;100.00;52451.31;2182442;27;34107;-70
2024/04/18 00:55:09;;;;;;;6.55;1.27;;;;;;;-146.25;100.00;52453.34;2181419;27;33504;-71
2024/04/18 00:56:12;;;;;;;9.30;1.70;;;;;;;-146.25;100.00;52445.25;2183646;27;36257;-71
2024/04/18 00:57:19;;;;;;;4.75;1.50;;;;;;;-146.25;100.00;52453.34;2182039;27;20015;-71
2024/04/18 00:58:22;;;;;;;8.57;1.50;;;;;;;-146.25;100.00;52463.50;2182116;27;33590;-72
2024/04/18 00:59:47;;;;;;;8.30;2.65;;;;;;;-146.25;100.00;52451.31;2182310;27;20039;-70
2024/04/18 01:00:50;;;;;;;9.52;3.08;;;;;;;-146.25;100.00;52433.06;2174228;27;20021;-71
2024/04/18 01:02:11;;;;;;;8.05;2.70;;;;;;;-146.25;100.00;52471.59;2181966;27;20038;-72
2024/04/18 01:03:13;;;;;;;12.15;2.60;;;;;;;-146.25;100.00;52449.31;2181908;27;34313;-72
2024/04/18 01:04:15;;;;;;;11.32;2.80;;;;;;;-146.25;100.00;52416.84;2182797;27;34181;-72
2024/04/18 01:05:17;;;;;;;11.52;2.78;;;;;;;-146.25;100.00;52416.84;2181552;27;30291;-71
2024/04/18 01:06:19;;;;;;;8.00;2.40;;;;;;;-146.25;100.00;52471.59;2182230;27;37010;-71
2024/04/18 01:07:42;;;;;;;;;;;;;;;-146.25;100.00;52485.81;2192363;26;20006;-72
2024/04/18 01:08:57;;;;;;;9.55;2.03;;;;;;;-146.25;100.00;52455.38;2183131;27;19974;-72
2024/04/18 01:10:05;;;;;;;5.80;1.90;;;;;;;-146.25;100.00;52465.53;2182168;27;21018;-71
2024/04/18 01:11:07;;;;;;;7.95;2.03;;;;;;;-146.25;100.00;52449.31;2181860;27;35365;-71
2024/04/18 01:12:09;;;;;;;4.88;1.70;;;;;;;-146.25;100.00;52453.34;2182394;27;35329;-72
2024/04/18 01:13:11;;;;;;;6.85;2.17;;;;;;;-146.25;100.00;52435.09;2182555;27;35377;-72
2024/04/18 01:14:31;;;;;;;;;;;;;;;-146.25;100.00;52453.34;2183918;27;20022;-71
2024/04/18 01:15:37;;;;;;;9.80;1.90;;;;;;;-146.25;100.00;52449.31;2183079;27;20834;-72
2024/04/18 01:16:41;;;;;;;5.03;1.70;;;;;;;-146.25;100.00;52453.34;2182151;27;34998;-72
2024/04/18 01:17:43;;;;;;;5.65;1.70;;;;;;;-146.25;100.00;52497.97;2182314;27;33973;-69
2024/04/18 01:18:45;;;;;;;7.63;2.00;;;;;;;-146.25;100.00;52457.41;2182704;27;34345;-71
2024/04/18 01:19:50;;;;;;;6.75;2.05;;;;;;;-146.25;100.00;52475.66;2181983;27;20133;-72
2024/04/18 01:20:52;;;;;;;6.88;1.90;;;;;;;-146.25;100.00;52449.31;2182323;27;34947;-72
2024/04/18 01:21:55;;;;;;;8.70;2.33;;;;;;;-146.25;100.00;52471.59;2181324;27;33249;-70
2024/04/18 01:22:59;;;;;;;9.80;1.95;;;;;;;-146.25;100.00;52441.19;2172186;27;36370;-72
2024/04/18 01:24:18;;;;;;;7.03;1.73;;;;;;;-146.25;100.00;52455.38;2185584;27;20007;-72
2024/04/18 01:25:20;;;;;;;5.80;1.67;;;;;;;-146.25;100.00;52437.13;2191899;26;35951;-72
2024/04/18 01:26:22;;;;;;;5.30;1.58;;;;;;;-146.25;100.00;52459.44;2182424;27;34396;-71
2024/04/18 01:27:23;;;;;;;6.07;1.88;;;;;;;-146.25;100.00;52465.53;2182647;27;33981;-71
2024/04/18 01:28:25;;;;;;;6.90;2.05;;;;;;;-146.25;100.00;52455.38;2182115;27;39117;-71
2024/04/18 01:29:33;;;;;;;9.23;2.75;;;;;;;-146.25;100.00;52481.75;2183273;27;20059;-72
2024/04/18 01:30:41;;;;;;;8.07;2.38;;;;;;;-146.25;100.00;52457.41;2182848;27;20916;-71
2024/04/18 01:31:46;;;;;;;7.68;2.75;;;;;;;-146.25;100.00;52449.31;2183350;27;20003;-71
2024/04/18 01:32:48;;;;;;;6.53;2.47;;;;;;;-146.25;100.00;52429.03;2182245;27;36396;-71
2024/04/18 01:33:50;;;;;;;8.32;2.67;;;;;;;-146.25;100.00;52420.91;2182533;27;36221;-73
2024/04/18 01:34:55;;;;;;;8.32;2.63;;;;;;;-146.25;100.00;52455.38;2182196;27;34058;-71
2024/04/18 01:35:56;;;;;;;8.05;2.10;;;;;;;-146.25;100.00;52433.06;2182465;27;36782;-71
2024/04/18 01:36:58;;;;;;;11.05;2.40;;;;;;;-146.25;100.00;52457.41;2182293;27;32935;-72
2024/04/18 01:38:03;;;;;;;8.48;2.13;;;;;;;-146.25;100.00;52459.44;2196502;27;20010;-70
2024/04/18 01:39:19;;;;;;;11.88;2.38;;;;;;;-146.25;100.00;52441.19;2191897;26;20002;-72
2024/04/18 01:40:37;;;;;;;7.22;1.77;;;;;;;-146.25;100.00;52429.03;2182185;27;20031;-71
2024/04/18 01:41:57;;;;;;;5.90;1.75;;;;;;;-146.25;100.00;52416.84;2182846;27;20006;-72
2024/04/18 01:43:17;;;;;;;7.72;2.60;;;;;;;-146.25;100.00;52443.22;2183046;27;20014;-72
2024/04/18 01:44:31;;;;;;;10.65;2.30;;;;;;;-146.25;100.00;52469.56;2196869;27;20009;-71
2024/04/18 01:45:51;;;;;;;7.53;2.25;;;;;;;-146.25;100.00;52467.56;2189600;27;20108;-74
2024/04/18 01:46:58;;;;;;;7.70;2.50;;;;;;;-146.25;100.00;52471.59;2182991;27;20205;-71
2024/04/18 01:48:06;;;;;;;12.50;2.30;;;;;;;-146.25;100.00;52477.69;2183325;27;20021;-72
2024/04/18 01:49:28;;;;;;;6.38;1.90;;;;;;;-146.25;100.00;52477.69;2182678;27;21141;-72
2024/04/18 01:50:30;;;;;;;10.35;2.42;;;;;;;-146.25;100.00;52467.56;2182475;27;34803;-71
2024/04/18 01:51:32;;;;;;;10.07;1.95;;;;;;;-146.25;100.00;52449.31;2181945;27;37479;-72
2024/04/18 01:52:35;;;;;;;5.78;2.40;;;;;;;-146.25;100.00;52481.75;2181839;27;31335;-72
2024/04/18 01:53:37;;;;;;;5.30;2.08;;;;;;;-146.25;100.00;52483.78;2181202;27;36086;-71
2024/04/18 01:54:51;;;;;;;7.25;2.35;;;;;;;-146.25;100.00;52445.25;2183101;27;20905;-71
2024/04/18 01:56:03;;;;;;;7.30;2.00;;;;;;;-146.25;100.00;52471.59;2183075;27;20007;-70
2024/04/18 01:57:17;;;;;;;6.13;1.92;;;;;;;-146.25;100.00;52477.69;2181994;27;20162;-71
2024/04/18 01:58:51;;;;;;;7.75;2.05;;;;;;;-146.25;100.00;52459.44;2183330;27;20133;-69
2024/04/18 01:59:52;;;;;;;9.00;2.40;;;;;;;-146.25;100.00;52491.88;2181923;27;35851;-71
2024/04/18 02:00:54;;;;;;;6.63;2.70;;;;;;;-146.25;100.00;52475.66;2191408;26;20001;-71
2024/04/18 02:01:56;;;;;;;7.47;2.20;;;;;;;-146.25;100.00;52471.59;2208980;26;36724;-70
2024/04/18 02:02:58;;;;;;;7.10;2.33;;;;;;;-146.25;100.00;52453.34;2210677;26;20936;-70
2024/04/18 02:04:19;;;;;;;6.32;2.00;;;;;;;-146.25;100.00;52457.41;2197118;26;20002;-70
2024/04/18 02:05:21;;;;;;;11.75;2.17;;;;;;;-146.25;100.00;52467.56;2196452;27;34530;-70
2024/04/18 02:06:43;;;;;;;6.18;1.83;;;;;;;-146.25;100.00;52459.44;2197109;26;20014;-70
2024/04/18 02:07:57;;;;;;;9.63;2.33;;;;;;;-146.25;100.00;52457.41;2196870;26;20014;-69
2024/04/18 02:09:19;;;;;;;9.32;2.38;;;;;;;-146.25;100.00;52465.53;2197309;26;20002;-70
2024/04/18 02:10:24;;;;;;;7.18;1.83;;;;;;;-146.25;100.00;52465.53;2196802;26;20048;-69
2024/04/18 02:11:39;;;;;;;10.13;2.67;;;;;;;-146.25;100.00;52473.63;2197196;26;20006;-68
2024/04/18 02:12:44;;;;;;;7.72;2.42;;;;;;;-146.25;100.00;52453.34;2197012;26;20942;-68
2024/04/18 02:14:09;;;;;;;7.55;2.17;;;;;;;-146.25;100.00;52457.41;2196719;26;20093;-69
2024/04/18 02:15:10;;;;;;;7.22;2.40;;;;;;;-146.25;100.00;52443.22;2196353;26;35041;-69
2024/04/18 02:16:32;;;;;;;6.32;2.45;;;;;;;-146.25;100.00;52451.31;2196032;27;20020;-69
2024/04/18 02:17:53;;;;;;;8.55;2.50;;;;;;;-146.25;100.00;52429.03;2196759;27;20002;-67
2024/04/18 02:19:15;;;;;;;7.15;2.42;;;;;;;-146.25;100.00;52489.84;2196526;27;20124;-67
2024/04/18 02:20:33;;;;;;;12.13;2.63;;;;;;;-146.25;100.00;52473.63;2196942;26;20002;-68
2024/04/18 02:21:53;;;;;;;8.52;2.55;;;;;;;-146.25;100.00;52451.31;2197045;27;20193;-68
2024/04/18 02:23:07;;;;;;;7.45;2.42;;;;;;;-146.25;100.00;52463.50;2196957;26;20917;-68
2024/04/18 02:24:24;;;;;;;6.32;2.55;;;;;;;-146.25;100.00;52465.53;2196662;26;20039;-67
2024/04/18 02:25:26;;;;;;;7.70;2.78;;;;;;;-146.25;100.00;52418.88;2196263;26;34684;-67
2024/04/18 02:26:28;;;;;;;8.27;2.60;;;;;;;-146.25;100.00;52465.53;2196077;26;34762;-68
2024/04/18 02:27:30;;;;;;;14.43;2.88;;;;;;;-146.25;100.00;52477.69;2197837;26;34199;-67
2024/04/18 02:28:52;;;;;;;11.68;2.70;;;;;;;-146.25;100.00;52467.56;2180897;27;20002;-68
2024/04/18 02:29:53;;;;;;;7.60;2.10;;;;;;;-146.25;100.00;52451.31;2182361;27;29750;-68
2024/04/18 02:31:10;;;;;;;7.93;2.75;;;;;;;-146.25;100.00;52435.09;2182561;27;21034;-67
2024/04/18 02:32:23;;;;;;;10.40;2.72;;;;;;;-146.25;100.00;52455.38;2182679;27;20006;-66
2024/04/18 02:33:25;;;;;;;6.00;2.33;;;;;;;-146.25;100.00;52451.31;2181564;27;35837;-70
2024/04/18 02:34:47;;;;;;;10.35;2.70;;;;;;;-146.25;100.00;52443.22;2182107;27;20014;-68
2024/04/18 02:35:58;;;;;;;5.75;2.67;;;;;;;-146.25;100.00;52447.28;2183277;27;20006;-67
2024/04/18 02:37:12;;;;;;;9.13;3.17;;;;;;;-146.25;100.00;52465.53;2182523;27;20007;-67
2024/04/18 02:38:14;;;;;;;9.75;3.00;;;;;;;-146.25;100.00;52400.63;2182025;27;20033;-67
2024/04/18 02:39:16;;;;;;;8.98;2.70;;;;;;;-146.25;100.00;52453.34;2180322;27;37708;-67
2024/04/18 02:40:21;;;;;;;9.02;2.75;;;;;;;-146.25;100.00;52481.75;2182342;27;30701;-68
2024/04/18 02:41:35;;;;;;;9.95;2.70;;;;;;;-146.25;100.00;52473.63;2182480;27;21037;-67
2024/04/18 02:42:56;;;;;;;10.30;2.70;;;;;;;-146.25;100.00;52435.09;2182502;27;20971;-66
2024/04/18 02:44:05;;;;;;;13.90;2.72;;;;;;;-146.25;100.00;52453.34;2182811;27;20161;-67
2024/04/18 02:45:07;;;;;;;7.45;2.72;;;;;;;-146.25;100.00;52459.44;2181765;27;35256;-67
2024/04/18 02:46:28;;;;;;;7.10;2.55;;;;;;;-146.25;100.00;52433.06;2182900;27;20002;-67
2024/04/18 02:47:50;;;;;;;7.03;2.88;;;;;;;-146.25;100.00;52469.56;2182441;27;20899;-67
2024/04/18 02:49:11;;;;;;;9.20;2.60;;;;;;;-146.25;100.00;52461.47;2182682;27;20003;-67
2024/04/18 02:50:30;;;;;;;9.35;2.63;;;;;;;-146.25;100.00;52457.41;2182734;27;20011;-67
2024/04/18 02:51:32;;;;;;;13.75;2.90;;;;;;;-146.25;100.00;52433.06;2182419;27;20013;-66
2024/04/18 02:52:47;;;;;;;12.75;3.33;;;;;;;-146.25;100.00;52457.41;2184179;26;20011;-66
2024/04/18 02:53:48;;;;;;;10.25;2.83;;;;;;;-146.25;100.00;52416.84;2196208;26;20010;-65
2024/04/18 02:54:50;;;;;;;11.90;3.00;;;;;;;-146.25;100.00;52463.50;2195997;26;37286;-66
2024/04/18 02:55:52;;;;;;;11.43;3.22;;;;;;;-146.25;100.00;52459.44;2194955;27;35014;-66
2024/04/18 02:57:04;;;;;;;8.90;2.80;;;;;;;-146.25;100.00;52457.41;2196363;27;21006;-66
2024/04/18 02:58:08;;;;;;;6.32;2.33;;;;;;;-146.25;100.00;52453.34;2195611;26;35698;-66
2024/04/18 02:59:16;;;;;;;14.10;2.92;;;;;;;-146.25;100.00;52453.34;2196845;26;20006;-67
2024/04/18 03:00:23;;;;;;;;;;;;;;;-146.25;100.00;52443.22;2197715;26;20925;-66
2024/04/18 03:01:44;;;;;;;7.80;2.45;;;;;;;-146.25;100.00;52457.41;2196627;26;19933;-65
2024/04/18 03:02:45;;;;;;;8.63;2.63;;;;;;;-146.25;100.00;52453.34;2196078;26;30773;-66
2024/04/18 03:03:53;;;;;;;7.97;2.47;;;;;;;-146.25;100.00;52455.38;2195691;26;20003;-65
2024/04/18 03:05:07;;;;;;;7.50;2.47;;;;;;;-146.25;100.00;52453.34;2196127;27;20051;-66
2024/04/18 03:06:08;;;;;;;8.73;2.38;;;;;;;-146.25;100.00;52457.41;2209232;26;30846;-66
2024/04/18 03:07:13;;;;;;;6.82;2.25;;;;;;;-146.25;100.00;52473.63;2209111;26;21007;-66
2024/04/18 03:08:21;;;;;;;12.65;3.20;;;;;;;-146.25;100.00;52461.47;2210066;26;20001;-66
2024/04/18 03:09:23;;;;;;;7.43;2.53;;;;;;;-146.25;100.00;52439.16;2207598;26;34758;-66
2024/04/18 03:10:28;;;;;;;6.47;2.38;;;;;;;-146.25;100.00;52441.19;2196303;26;20170;-66
2024/04/18 03:11:32;;;;;;;6.13;2.50;;;;;;;-146.25;100.00;52457.41;2196837;27;20013;-67
2024/04/18 03:12:44;;;;;;;11.35;3.83;;;;;;;-146.25;100.00;52431.06;2196357;27;20927;-65
2024/04/18 03:14:14;;;;;;;8.40;2.42;;;;;;;-146.25;100.00;52457.41;2196633;27;20017;-64
2024/04/18 03:15:33;;;;;;;7.93;2.35;;;;;;;-146.25;100.00;52431.06;2196734;26;20005;-67
2024/04/18 03:16:50;;;;;;;9.43;2.35;;;;;;;-146.25;100.00;52443.22;2196433;26;20002;-66
2024/04/18 03:17:53;;;;;;;8.50;2.75;;;;;;;-146.25;100.00;52479.72;2196058;26;36137;-67
2024/04/18 03:19:11;;;;;;;9.85;2.55;;;;;;;-146.25;100.00;52451.31;2196955;26;20097;-66
2024/04/18 03:20:25;;;;;;;11.38;2.88;;;;;;;-146.25;100.00;52429.03;2196560;26;21009;-65
2024/04/18 03:21:45;;;;;;;12.77;2.72;;;;;;;-146.25;100.00;52429.03;2196753;26;20162;-66
2024/04/18 03:22:51;;;;;;;12.65;2.92;;;;;;;-146.25;100.00;52400.63;2196323;26;20010;-66
2024/04/18 03:23:53;;;;;;;8.73;3.20;;;;;;;-146.25;100.00;52445.25;2196058;26;35388;-66
2024/04/18 03:25:15;;;;;;;13.13;2.90;;;;;;;-146.25;100.00;52449.31;2196629;26;20006;-66
2024/04/18 03:26:35;;;;;;;6.07;2.47;;;;;;;-146.25;100.00;52408.75;2196577;26;20002;-67
2024/04/18 03:27:37;;;;;;;11.23;2.92;;;;;;;-146.25;100.00;52443.22;2195806;26;31636;-66
2024/04/18 03:28:39;;;;;;;9.40;2.80;;;;;;;-146.25;100.00;52459.44;2196089;26;33995;-66
2024/04/18 03:29:41;;;;;;;9.07;2.63;;;;;;;-146.25;100.00;52453.34;2209164;26;27163;-66
2024/04/18 03:31:03;;;;;;;5.68;2.40;;;;;;;-146.25;100.00;52424.97;2204833;26;20006;-67
2024/04/18 03:32:05;;;;;;;9.13;2.40;;;;;;;-146.25;100.00;52453.34;2195892;26;36039;-66
2024/04/18 03:33:20;;;;;;;8.93;2.45;;;;;;;-146.25;100.00;52455.38;2196305;26;20017;-66
2024/04/18 03:34:21;;;;;;;6.53;2.33;;;;;;;-146.25;100.00;52424.97;2195969;26;33808;-66
2024/04/18 03:35:26;;;;;;;9.88;2.55;;;;;;;-146.25;100.00;52445.25;2196260;26;20124;-66
2024/04/18 03:36:52;;;;;;;8.60;2.50;;;;;;;-146.25;100.00;52429.03;2196789;26;20030;-66
2024/04/18 03:38:03;;;;;;;7.75;3.00;;;;;;;-146.25;100.00;52443.22;2196400;26;20020;-67
2024/04/18 03:39:05;;;;;;;10.13;2.55;;;;;;;-146.25;100.00;52445.25;2195438;26;32061;-67
2024/04/18 03:40:10;;;;;;;7.78;2.60;;;;;;;-146.25;100.00;52465.53;2196113;26;28844;-66
2024/04/18 03:41:32;;;;;;;12.50;2.80;;;;;;;-146.25;100.00;52435.09;2197361;27;21041;-67
2024/04/18 03:42:49;;;;;;;6.78;2.33;;;;;;;-146.25;100.00;52461.47;2198023;26;20021;-66
2024/04/18 03:43:51;;;;;;;11.82;2.83;;;;;;;-146.25;100.00;52451.31;2196655;26;38669;-66
2024/04/18 03:44:57;;;;;;;8.40;3.13;;;;;;;-146.25;100.00;52459.44;2197098;26;34221;-66
2024/04/18 03:46:00;;;;;;;9.95;2.67;;;;;;;-146.25;100.00;52471.59;2196510;26;35814;-66
2024/04/18 03:47:02;;;;;;;13.68;2.80;;;;;;;-146.25;100.00;52455.38;2197293;26;31287;-66
2024/04/18 03:48:07;;;;;;;14.73;3.10;;;;;;;-146.25;100.00;52481.75;2197392;26;21099;-66
2024/04/18 03:49:18;;;;;;;8.38;3.30;;;;;;;-146.25;100.00;52457.41;2197723;26;20014;-66
2024/04/18 03:50:20;;;;;;;13.38;3.08;;;;;;;-146.25;100.00;52437.13;2197038;26;35456;-66
2024/04/18 03:51:26;;;;;;;9.70;3.17;;;;;;;-146.25;100.00;52495.94;2197836;26;20009;-66
2024/04/18 03:52:57;;;;;;;10.68;3.45;;;;;;;-146.25;100.00;52457.41;2197638;26;21361;-66
2024/04/18 03:54:14;;;;;;;7.07;2.83;;;;;;;-146.25;100.00;52467.56;2197052;26;21033;-66
2024/04/18 03:55:25;;;;;;;10.52;3.00;;;;;;;-146.25;100.00;52473.63;2197762;26;20486;-65
2024/04/18 03:56:27;;;;;;;14.20;3.33;;;;;;;-146.25;100.00;52453.34;2196829;26;30430;-66
2024/04/18 03:57:29;;;;;;;11.25;3.33;;;;;;;-146.25;100.00;52473.63;2197144;26;33267;-66
2024/04/18 03:58:31;;;;;;;14.13;3.75;;;;;;;-146.25;100.00;52461.47;2196500;26;38349;-66
2024/04/18 03:59:33;;;;;;;10.25;3.45;;;;;;;-146.25;100.00;52453.34;2197043;26;32076;-66
2024/04/18 04:00:35;;;;;;;12.77;3.55;;;;;;;-146.25;100.00;52455.38;2196588;26;32547;-66
2024/04/18 04:01:38;;;;;;;6.28;2.55;;;;;;;-146.25;100.00;52483.78;2197257;26;35937;-66
2024/04/18 04:02:40;;;;;;;15.80;3.30;;;;;;;-146.25;100.00;52457.41;2196615;26;35025;-66
2024/04/18 04:03:42;;;;;;;11.02;2.78;;;;;;;-146.25;100.00;52437.13;2197094;26;32222;-66
2024/04/18 04:04:44;;;;;;;10.13;3.15;;;;;;;-146.25;100.00;52471.59;2196626;26;34515;-65
2024/04/18 04:05:46;;;;;;;8.45;2.75;;;;;;;-146.25;100.00;52475.66;2196900;27;38417;-66
2024/04/18 04:06:48;;;;;;;13.43;3.30;;;;;;;-146.25;100.00;52463.50;2196713;26;32341;-66
2024/04/18 04:07:51;;;;;;;10.07;3.10;;;;;;;-146.25;100.00;52481.75;2197188;26;33786;-66
2024/04/18 04:09:12;;;;;;;10.98;2.85;;;;;;;-146.25;100.00;52489.84;2194723;26;21107;-67
2024/04/18 04:10:14;;;;;;;14.48;3.53;;;;;;;-146.25;100.00;52447.28;2197064;26;31859;-67
2024/04/18 04:11:16;;;;;;;12.43;2.78;;;;;;;-146.25;100.00;52471.59;2196531;26;37050;-66
2024/04/18 04:12:20;;;;;;;11.85;3.25;;;;;;;-146.25;100.00;52465.53;2197069;26;32683;-66
2024/04/18 04:13:41;;;;;;;11.48;2.97;;;;;;;-146.25;100.00;52447.28;2198126;26;20006;-66
2024/04/18 04:14:52;;;;;;;11.07;2.90;;;;;;;-146.25;100.00;52453.34;2196432;26;20021;-66
2024/04/18 04:15:57;;;;;;;17.48;3.17;;;;;;;-146.25;100.00;52433.06;2196728;27;20002;-67
2024/04/18 04:17:14;;;;;;;11.85;3.40;;;;;;;-146.25;100.00;52469.56;2197402;26;20006;-66
2024/04/18 04:18:16;;;;;;;10.40;3.20;;;;;;;-146.25;100.00;52495.94;2197118;26;33149;-66
2024/04/18 04:19:18;;;;;;;11.52;3.58;;;;;;;-146.25;100.00;52443.22;2196570;26;34735;-66
2024/04/18 04:20:25;;;;;;;9.13;3.60;;;;;;;-146.25;100.00;52465.53;2197747;26;20108;-67
2024/04/18 04:21:27;;;;;;;12.02;3.45;;;;;;;-146.25;100.00;52473.63;2196787;26;30722;-66
2024/04/18 04:22:29;;;;;;;10.38;3.28;;;;;;;-146.25;100.00;52461.47;2197020;26;33036;-67
2024/04/18 04:23:53;;;;;;;10.57;2.75;;;;;;;-146.25;100.00;52441.19;2197365;26;21115;-67
2024/04/18 04:25:15;;;;;;;13.07;3.25;;;;;;;-146.25;100.00;52479.72;2197014;27;20034;-67
2024/04/18 04:26:17;;;;;;;9.65;2.70;;;;;;;-146.25;100.00;52431.06;2196861;26;36122;-68
2024/04/18 04:27:21;;;;;;;7.97;3.08;;;;;;;-146.25;100.00;52422.94;2197351;27;20014;-68
2024/04/18 04:28:23;;;;;;;10.38;2.55;;;;;;;-146.25;100.00;52453.34;2196969;26;32915;-69
2024/04/18 04:29:25;;;;;;;9.00;3.17;;;;;;;-146.25;100.00;52463.50;2196418;26;37521;-67
2024/04/18 04:30:27;;;;;;;11.57;3.53;;;;;;;-146.25;100.00;52489.84;2197666;26;20921;-69
2024/04/18 04:31:29;;;;;;;12.00;3.30;;;;;;;-146.25;100.00;52467.56;2196781;26;33481;-70
2024/04/18 04:32:31;;;;;;;18.50;3.85;;;;;;;-146.25;100.00;52467.56;2197002;26;33710;-69
2024/04/18 04:33:33;;;;;;;9.07;3.40;;;;;;;-146.25;100.00;52471.59;2201812;26;20006;-67
2024/04/18 04:34:35;;;;;;;12.50;3.72;;;;;;;-146.25;100.00;52447.28;2195945;27;37014;-71
2024/04/18 04:35:37;;;;;;;13.13;3.42;;;;;;;-146.25;100.00;52424.97;2195943;27;29154;-70
2024/04/18 04:36:39;;;;;;;10.63;3.22;;;;;;;-146.25;100.00;52459.44;2197389;26;32557;-70
2024/04/18 04:37:41;;;;;;;14.18;3.72;;;;;;;-146.25;100.00;52483.78;2196652;26;34493;-70
2024/04/18 04:38:44;;;;;;;10.40;3.97;;;;;;;-146.25;100.00;52489.84;2197371;26;36598;-70
2024/04/18 04:39:47;;;;;;;13.50;4.53;;;;;;;-146.25;100.00;52443.22;2196923;26;20013;-69
2024/04/18 04:40:55;;;;;;;10.45;3.58;;;;;;;-146.25;100.00;52429.03;2197649;26;20926;-71
2024/04/18 04:41:57;;;;;;;8.98;3.80;;;;;;;-146.25;100.00;52469.56;2196755;26;29948;-70
2024/04/18 04:42:59;;;;;;;12.00;3.70;;;;;;;-146.25;100.00;52469.56;2196864;26;34758;-71
2024/04/18 04:44:01;;;;;;;9.48;3.30;;;;;;;-146.25;100.00;52437.13;2196398;26;36175;-71
2024/04/18 04:45:21;;;;;;;6.38;3.08;;;;;;;-146.25;100.00;52473.63;2197738;26;20002;-70
2024/04/18 04:46:38;;;;;;;12.93;3.63;;;;;;;-146.25;100.00;52477.69;2197369;26;20005;-70
2024/04/18 04:47:52;;;;;;;12.65;3.10;;;;;;;-146.25;100.00;52481.75;2197620;26;20992;-70
2024/04/18 04:49:00;;;;;;;13.52;2.63;;;;;;;-146.25;100.00;52424.97;2197412;26;20048;-70
2024/04/18 04:50:04;;;;;;;8.23;2.50;;;;;;;-146.25;100.00;52463.50;2196634;26;34399;-72
2024/04/18 04:51:14;;;;;;;8.57;2.05;;;;;;;-146.25;100.00;52504.03;2197556;26;20014;-72
2024/04/18 04:52:16;;;;;;;4.72;2.03;;;;;;;-146.25;100.00;52451.31;2195821;26;34692;-71
2024/04/18 04:53:18;;;;;;;4.57;1.92;;;;;;;-146.25;100.00;52477.69;2196851;26;34721;-70
2024/04/18 04:54:32;;;;;;;6.40;1.45;;;;;;;-146.25;100.00;52477.69;2196888;26;20033;-70
2024/04/18 04:55:34;;;;;;;5.53;1.33;;;;;;;-146.25;100.00;52461.47;2196734;26;34031;-70
2024/04/18 04:56:36;;;;;;;7.45;1.05;;;;;;;-146.25;100.00;52479.72;2196502;26;34378;-69
2024/04/18 04:57:55;;;;;;;4.72;0.73;;;;;;;-146.25;100.00;52473.63;2197702;26;20006;-71
2024/04/18 04:58:58;;;;;;;5.10;1.23;;;;;;;-146.25;100.00;52512.16;2196487;26;33474;-70
2024/04/18 04:59:59;;;;;;;5.90;0.88;;;;;;;-146.25;100.00;52469.56;2196974;26;28576;-71
2024/04/18 05:01:24;;;;;;;6.25;1.00;;;;;;;-146.25;100.00;52508.09;2197649;26;21025;-71
2024/04/18 05:02:30;;;;;;;2.75;0.60;;;;;;;-146.25;100.00;52477.69;2197383;26;20964;-70
2024/04/18 05:03:31;;;;;;;2.70;0.77;;;;;;;-146.25;100.00;52485.81;2196457;26;37257;-71
2024/04/18 05:04:53;;;;;;;4.28;0.80;;;;;;;-146.25;100.00;52485.81;2197059;26;21022;-71
2024/04/18 05:06:04;;;;;;;3.55;0.82;;;;;;;-146.25;100.00;52481.75;2197541;26;20073;-70
2024/04/18 05:07:11;;;;;;;3.65;0.82;;;;;;;-146.25;100.00;52508.09;2197205;26;20180;-71
2024/04/18 05:08:13;;;;;;;3.42;0.70;;;;;;;-146.25;100.00;52487.81;2196794;26;35306;-71
2024/04/18 05:09:17;;;;;;;4.50;1.02;;;;;;;-146.25;100.00;52514.19;2195879;26;36609;-71